createdAt,value
2019-01-30T00:05:23.734Z,21.60
2019-01-30T00:15:28.533Z,21.60
2019-01-30T00:25:33.857Z,21.60
2019-01-30T00:35:39.137Z,21.70
2019-01-30T00:45:44.068Z,21.70
2019-01-30T00:55:48.807Z,21.80
2019-01-30T01:05:53.646Z,21.70
2019-01-30T01:15:58.425Z,21.80
2019-01-30T01:26:03.286Z,21.80
2019-01-30T01:36:08.173Z,21.80
2019-01-30T01:46:12.922Z,21.80
2019-01-30T01:56:17.684Z,21.90
2019-01-30T02:06:22.530Z,22.00
2019-01-30T02:16:27.291Z,22.00
2019-01-30T02:26:32.026Z,22.00
2019-01-30T02:36:38.393Z,22.10
2019-01-30T02:46:43.186Z,22.10
2019-01-30T02:56:47.939Z,22.10
2019-01-30T03:06:54.242Z,22.10
2019-01-30T03:17:02.877Z,22.10
2019-01-30T03:27:07.650Z,22.20
2019-01-30T03:37:12.465Z,22.20
2019-01-30T03:47:17.360Z,22.20
2019-01-30T03:57:22.153Z,22.20
2019-01-30T04:07:26.937Z,22.30
2019-01-30T04:17:31.717Z,22.30
2019-01-30T04:27:36.530Z,22.40
2019-01-30T04:37:41.409Z,22.50
2019-01-30T04:47:46.166Z,22.50
2019-01-30T04:57:50.964Z,22.50
2019-01-30T05:07:55.842Z,22.50
2019-01-30T05:18:00.595Z,22.60
2019-01-30T05:28:05.404Z,22.60
2019-01-30T05:38:10.315Z,22.70
2019-01-30T05:48:15.084Z,22.70
2019-01-30T05:58:19.843Z,22.60
2019-01-30T06:08:24.597Z,22.70
2019-01-30T06:18:29.611Z,22.60
2019-01-30T06:28:34.382Z,22.70
2019-01-30T06:38:39.236Z,22.80
2019-01-30T06:48:44.002Z,22.80
2019-01-30T06:58:48.763Z,22.80
2019-01-30T07:08:53.518Z,22.90
2019-01-30T07:29:39.900Z,22.90
2019-01-30T07:39:44.677Z,22.90
2019-01-30T07:49:49.441Z,22.90
2019-01-30T07:59:54.199Z,22.90
2019-01-30T08:09:58.967Z,22.90
2019-01-30T08:20:07.603Z,22.90
2019-01-30T08:30:22.712Z,22.90
2019-01-30T08:40:24.522Z,22.90
2019-01-30T08:50:30.490Z,23.00
2019-01-30T09:00:35.221Z,23.00
2019-01-30T09:10:40.047Z,23.00
2019-01-30T09:20:44.765Z,23.00
2019-01-30T09:30:49.522Z,23.00
2019-01-30T09:40:54.298Z,23.00
2019-01-30T09:50:59.042Z,23.00
2019-01-30T10:01:03.792Z,22.90
2019-01-30T10:11:08.531Z,22.90
2019-01-30T10:21:13.326Z,22.90
2019-01-30T10:31:18.081Z,23.00
2019-01-30T10:41:22.884Z,22.90
2019-01-30T10:51:27.644Z,22.90
2019-01-30T11:01:32.485Z,22.90
2019-01-30T11:11:37.228Z,22.90
2019-01-30T11:21:42.105Z,22.80
2019-01-30T11:31:47.001Z,22.80
2019-01-30T11:41:51.739Z,22.80
2019-01-30T11:51:56.574Z,22.90
2019-01-30T12:02:01.322Z,22.80
2019-01-30T12:12:06.053Z,22.80
2019-01-30T12:22:11.120Z,22.80
2019-01-30T12:32:15.885Z,22.80
2019-01-30T12:42:20.646Z,22.80
2019-01-30T12:52:25.407Z,22.80
2019-01-30T13:02:30.160Z,22.70
2019-01-30T13:12:35.044Z,22.80
2019-01-30T13:22:39.842Z,22.80
2019-01-30T13:32:44.604Z,22.70
2019-01-30T13:42:49.360Z,22.70
2019-01-30T13:52:54.213Z,22.70
2019-01-30T14:02:59.068Z,22.70
2019-01-30T14:13:03.790Z,22.70
2019-01-30T14:23:08.696Z,22.70
2019-01-30T14:33:14.452Z,22.60
2019-01-30T14:43:19.282Z,22.60
2019-01-30T14:53:24.117Z,22.70
2019-01-30T15:03:28.949Z,22.60
2019-01-30T15:13:33.805Z,22.60
2019-01-30T15:23:38.802Z,22.50
2019-01-30T15:33:43.550Z,22.50
2019-01-30T15:43:48.323Z,22.50
2019-01-30T15:53:53.193Z,22.50
2019-01-30T16:03:58.004Z,22.50
2019-01-30T16:14:02.855Z,22.50
2019-01-30T16:24:07.647Z,22.40
2019-01-30T16:34:12.482Z,22.40
2019-01-30T16:44:17.415Z,22.40
2019-01-30T16:54:24.083Z,22.30
2019-01-30T17:04:28.919Z,22.30
2019-01-30T17:14:33.889Z,22.30
2019-01-30T17:24:38.888Z,22.20
2019-01-30T17:34:43.801Z,22.20
2019-01-30T17:44:48.738Z,22.20
2019-01-30T17:54:53.516Z,22.20
2019-01-30T18:04:59.301Z,22.10
2019-01-30T18:53:24.375Z,5.10
2019-01-30T19:03:29.394Z,4.00
2019-01-30T19:13:34.414Z,1.20
2019-01-30T19:23:39.414Z,0.00
2019-01-30T19:33:44.342Z,-0.40
2019-01-30T19:43:49.603Z,-0.40
2019-01-30T19:53:55.402Z,-0.30
2019-01-30T20:04:00.242Z,0.00
2019-01-30T20:14:05.054Z,0.20
2019-01-30T20:24:10.244Z,0.40
2019-01-30T20:34:15.273Z,0.50
2019-01-30T20:44:20.151Z,0.60
2019-01-30T20:54:25.122Z,0.80
